createdAt,value
2023-02-22T00:00:44.861Z,4.90
2023-02-22T00:05:48.314Z,3.30
2023-02-22T00:10:51.496Z,3.10
2023-02-22T00:15:55.808Z,3.55
2023-02-22T00:21:00.258Z,4.95
2023-02-22T00:26:03.133Z,4.68
2023-02-22T00:31:07.587Z,3.67
2023-02-22T00:36:12.832Z,4.03
2023-02-22T00:41:16.142Z,3.80
2023-02-22T00:46:20.551Z,3.72
2023-02-22T00:51:26.508Z,5.40
2023-02-22T00:56:29.412Z,3.00
2023-02-22T01:01:33.700Z,4.65
2023-02-22T01:06:37.130Z,2.90
2023-02-22T01:11:41.350Z,3.30
2023-02-22T01:16:45.570Z,3.25
2023-02-22T01:21:48.922Z,3.13
2023-02-22T01:26:53.316Z,3.08
2023-02-22T01:31:57.919Z,3.42
2023-02-22T01:37:01.460Z,4.28
2023-02-22T01:42:04.401Z,3.17
2023-02-22T01:47:09.784Z,3.55
2023-02-22T01:52:19.352Z,2.38
2023-02-22T01:57:26.410Z,3.60
2023-02-22T02:02:30.676Z,3.92
2023-02-22T02:07:33.499Z,3.08
2023-02-22T02:12:37.455Z,3.72
2023-02-22T02:17:41.698Z,3.35
2023-02-22T02:22:52.645Z,2.75
2023-02-22T02:28:23.966Z,3.78
2023-02-22T02:33:32.649Z,2.53
2023-02-22T02:38:42.666Z,3.00
2023-02-22T02:43:54.483Z,3.17
2023-02-22T02:49:01.450Z,3.20
2023-02-22T02:54:05.228Z,3.33
2023-02-22T02:59:26.225Z,4.50
2023-02-22T03:04:43.449Z,3.33
2023-02-22T03:10:00.786Z,3.53
2023-02-22T03:15:14.326Z,4.40
2023-02-22T03:20:31.501Z,3.13
2023-02-22T03:25:38.567Z,2.72
2023-02-22T03:30:46.510Z,3.45
2023-02-22T03:35:56.937Z,3.22
2023-02-22T03:41:02.908Z,2.38
2023-02-22T03:46:07.356Z,2.40
2023-02-22T03:51:16.695Z,3.67
2023-02-22T03:56:24.435Z,3.25
2023-02-22T04:01:27.404Z,2.20
2023-02-22T04:06:31.946Z,2.95
2023-02-22T04:11:34.851Z,2.78
2023-02-22T04:16:37.720Z,3.65
2023-02-22T04:21:41.912Z,2.83
2023-02-22T04:26:44.930Z,4.43
2023-02-22T04:31:48.012Z,3.80
2023-02-22T04:36:52.423Z,3.15
2023-02-22T04:41:56.033Z,4.30
2023-02-22T04:46:58.898Z,5.07
2023-02-22T04:52:03.089Z,4.20
2023-02-22T04:57:05.918Z,5.13
2023-02-22T05:02:08.820Z,3.90
2023-02-22T05:07:13.064Z,4.20
2023-02-22T05:12:16.257Z,4.18
2023-02-22T05:17:19.081Z,4.30
2023-02-22T05:22:24.169Z,3.30
2023-02-22T05:27:27.018Z,3.65
2023-02-22T05:32:29.835Z,3.75
2023-02-22T05:37:34.026Z,3.15
2023-02-22T05:42:36.855Z,4.20
2023-02-22T05:47:39.692Z,3.92
2023-02-22T05:52:44.013Z,4.03
2023-02-22T05:57:47.074Z,5.43
2023-02-22T06:02:55.170Z,3.58
2023-02-22T06:07:59.976Z,2.97
2023-02-22T06:13:03.368Z,6.18
2023-02-22T06:18:06.301Z,3.17
2023-02-22T06:23:11.121Z,3.67
2023-02-22T06:28:14.317Z,4.60
2023-02-22T06:33:17.153Z,3.55
2023-02-22T06:38:25.844Z,2.83
2023-02-22T06:43:28.673Z,3.28
2023-02-22T06:48:31.563Z,4.60
2023-02-22T06:53:36.043Z,4.10
2023-02-22T06:58:38.913Z,4.05
2023-02-22T07:03:42.347Z,10.43
2023-02-22T07:08:47.635Z,4.20
2023-02-22T07:13:50.615Z,4.18
2023-02-22T07:18:53.435Z,3.08
2023-02-22T07:23:59.915Z,4.32
2023-02-22T07:29:02.749Z,5.75
2023-02-22T07:34:05.605Z,3.67
2023-02-22T07:39:10.342Z,8.57
2023-02-22T07:44:13.260Z,8.10
2023-02-22T07:49:16.358Z,5.30
2023-02-22T07:54:20.733Z,7.00
2023-02-22T07:59:23.563Z,5.97
2023-02-22T08:04:26.669Z,7.10
2023-02-22T08:09:30.814Z,6.55
2023-02-22T08:14:33.703Z,4.22
2023-02-22T08:19:36.614Z,12.25
2023-02-22T08:24:41.085Z,7.30
2023-02-22T08:29:43.876Z,7.43
2023-02-22T08:34:46.796Z,11.13
2023-02-22T08:39:51.033Z,8.88
2023-02-22T08:44:53.854Z,6.97
2023-02-22T08:49:57.051Z,13.20
2023-02-22T08:55:01.200Z,7.45
2023-02-22T09:00:05.552Z,12.90
2023-02-22T09:05:09.356Z,7.10
2023-02-22T09:10:16.449Z,9.38
2023-02-22T09:15:20.108Z,8.10
2023-02-22T09:20:24.591Z,10.52
2023-02-22T09:25:28.923Z,5.55
2023-02-22T09:30:34.284Z,5.88
2023-02-22T09:35:37.223Z,7.75
2023-02-22T09:40:45.059Z,7.32
2023-02-22T09:45:58.942Z,8.18
2023-02-22T09:51:04.891Z,9.05
2023-02-22T09:56:11.973Z,6.32
2023-02-22T10:01:24.467Z,8.77
2023-02-22T10:06:27.928Z,7.00
2023-02-22T10:11:45.108Z,5.80
2023-02-22T10:16:56.587Z,5.65
2023-02-22T10:22:29.556Z,6.00
2023-02-22T10:27:40.444Z,6.85
2023-02-22T10:32:45.577Z,5.88
2023-02-22T10:37:49.706Z,5.63
2023-02-22T10:42:54.030Z,5.40
2023-02-22T10:47:59.286Z,4.63
2023-02-22T10:53:02.362Z,5.38
2023-02-22T10:58:09.047Z,3.58
2023-02-22T11:03:19.755Z,5.57
2023-02-22T11:08:29.112Z,4.95
2023-02-22T11:13:38.386Z,4.68
2023-02-22T11:18:41.311Z,5.30
2023-02-22T11:23:45.099Z,5.13
2023-02-22T11:28:56.012Z,5.72
2023-02-22T11:34:01.067Z,5.63
2023-02-22T11:39:05.749Z,7.40
2023-02-22T11:44:25.168Z,4.78
2023-02-22T11:49:35.221Z,5.53
2023-02-22T11:55:02.025Z,4.60
2023-02-22T12:00:24.579Z,4.90
2023-02-22T12:05:44.140Z,4.50
2023-02-22T12:10:58.643Z,2.58
2023-02-22T12:16:13.035Z,4.75
2023-02-22T12:21:20.534Z,4.50
2023-02-22T12:26:30.465Z,4.05
2023-02-22T12:31:40.383Z,3.58
2023-02-22T12:36:48.262Z,5.55
2023-02-22T12:41:55.525Z,4.25
2023-02-22T12:47:02.365Z,3.70
2023-02-22T12:52:21.191Z,5.68
2023-02-22T12:57:35.816Z,3.85
2023-02-22T13:02:44.422Z,4.50
2023-02-22T13:07:56.736Z,4.65
2023-02-22T13:13:08.999Z,3.70
2023-02-22T13:18:20.014Z,3.95
2023-02-22T13:23:35.259Z,4.07
2023-02-22T13:28:44.826Z,3.05
2023-02-22T13:34:07.285Z,3.30
2023-02-22T13:39:55.476Z,3.72
2023-02-22T13:45:36.001Z,4.78
2023-02-22T13:51:03.670Z,3.40
2023-02-22T13:56:07.088Z,3.70
2023-02-22T14:01:41.755Z,3.00
2023-02-22T14:06:45.758Z,3.22
2023-02-22T14:11:54.088Z,3.72
2023-02-22T14:17:24.906Z,2.58
2023-02-22T14:22:29.977Z,2.88
2023-02-22T14:27:42.349Z,3.15
2023-02-22T14:32:48.897Z,4.00
2023-02-22T14:37:57.046Z,4.47
2023-02-22T14:43:04.214Z,2.65
2023-02-22T14:48:20.314Z,3.65
2023-02-22T14:53:32.396Z,2.78
2023-02-22T14:58:41.541Z,2.60
2023-02-22T15:03:46.295Z,4.68
2023-02-22T15:09:07.938Z,3.03
2023-02-22T15:14:25.813Z,2.83
2023-02-22T15:19:34.565Z,3.85
2023-02-22T15:24:38.740Z,2.83
2023-02-22T15:29:44.459Z,2.33
2023-02-22T15:34:48.622Z,2.88
2023-02-22T15:39:59.220Z,3.60
2023-02-22T15:45:02.251Z,4.75
2023-02-22T15:50:23.799Z,2.50
2023-02-22T15:55:30.063Z,2.10
2023-02-22T16:00:36.941Z,3.15
2023-02-22T16:05:45.426Z,3.95
2023-02-22T16:10:54.447Z,2.63
2023-02-22T16:16:02.738Z,3.42
2023-02-22T16:21:11.741Z,2.45
2023-02-22T16:26:27.807Z,3.78
2023-02-22T16:31:33.790Z,2.53
2023-02-22T16:36:43.322Z,3.60
2023-02-22T16:41:46.229Z,3.58
2023-02-22T16:46:49.040Z,2.13
2023-02-22T16:51:55.862Z,2.10
2023-02-22T16:57:01.991Z,2.72
2023-02-22T17:02:07.568Z,4.07
2023-02-22T17:07:11.770Z,3.42
2023-02-22T17:12:14.962Z,11.90
2023-02-22T17:17:18.183Z,8.13
2023-02-22T17:22:23.687Z,13.25
2023-02-22T17:27:26.560Z,14.23
2023-02-22T17:32:29.457Z,16.48
2023-02-22T17:37:33.657Z,38.80
2023-02-22T17:42:36.484Z,22.48
2023-02-22T17:47:39.312Z,17.50
2023-02-22T17:52:43.784Z,16.45
2023-02-22T17:57:46.822Z,15.40
2023-02-22T18:02:50.099Z,16.27
2023-02-22T18:07:54.339Z,20.08
2023-02-22T18:13:01.889Z,16.40
2023-02-22T18:18:06.007Z,17.83
2023-02-22T18:23:13.479Z,19.02
2023-02-22T18:28:17.803Z,19.00
2023-02-22T18:33:21.337Z,19.77
2023-02-22T18:38:25.697Z,14.30
2023-02-22T18:43:29.431Z,14.13
2023-02-22T18:48:32.771Z,14.30
2023-02-22T18:53:37.693Z,12.52
2023-02-22T18:58:43.158Z,14.00
2023-02-22T19:03:47.364Z,16.05
2023-02-22T19:08:52.289Z,13.40
2023-02-22T19:13:57.798Z,14.35
2023-02-22T19:19:00.822Z,26.30
2023-02-22T19:24:06.060Z,10.70
2023-02-22T19:29:08.996Z,12.25
2023-02-22T19:34:14.525Z,9.57
2023-02-22T19:39:20.243Z,11.65
2023-02-22T19:44:23.214Z,10.65
2023-02-22T19:49:27.808Z,10.30
2023-02-22T19:54:32.016Z,7.88
2023-02-22T19:59:34.837Z,15.40
2023-02-22T20:04:37.715Z,10.23
2023-02-22T20:09:43.217Z,12.52
2023-02-22T20:14:47.097Z,10.23
2023-02-22T20:19:50.398Z,10.43
2023-02-22T20:24:54.688Z,8.82
2023-02-22T20:29:57.489Z,9.07
2023-02-22T20:35:00.435Z,9.27
2023-02-22T20:40:05.326Z,6.75
2023-02-22T20:45:11.028Z,6.68
2023-02-22T20:50:15.194Z,10.70
2023-02-22T20:55:19.550Z,7.47
2023-02-22T21:00:22.672Z,9.55
2023-02-22T21:05:25.512Z,9.10
2023-02-22T21:10:29.653Z,7.70
2023-02-22T21:15:34.998Z,9.55
2023-02-22T21:20:40.795Z,8.25
2023-02-22T21:25:52.994Z,9.50
2023-02-22T21:30:56.067Z,6.72
2023-02-22T21:42:22.816Z,7.50
2023-02-22T21:47:25.703Z,6.60
2023-02-22T21:52:28.502Z,9.90
2023-02-22T21:57:32.731Z,8.50
2023-02-22T22:02:38.265Z,6.28
2023-02-22T22:07:44.600Z,7.30
2023-02-22T22:12:50.416Z,6.38
2023-02-22T22:17:53.283Z,6.50
2023-02-22T22:22:56.096Z,6.47
2023-02-22T22:28:00.264Z,7.35
2023-02-22T22:33:03.094Z,7.53
2023-02-22T22:38:06.656Z,5.95
2023-02-22T22:43:10.784Z,7.45
2023-02-22T22:48:15.010Z,5.93
2023-02-22T22:53:18.699Z,5.93
2023-02-22T22:58:22.864Z,5.75
2023-02-22T23:03:26.260Z,6.10
2023-02-22T23:08:29.362Z,5.32
2023-02-22T23:13:33.810Z,6.28
2023-02-22T23:18:36.617Z,5.68
2023-02-22T23:23:51.534Z,5.78
2023-02-22T23:28:56.003Z,8.27
2023-02-22T23:33:59.946Z,6.68
2023-02-22T23:39:04.282Z,7.57
2023-02-22T23:44:08.545Z,6.18
2023-02-22T23:49:11.869Z,7.97
2023-02-22T23:54:19.235Z,6.78
2023-02-22T23:59:22.055Z,7.90
